Погода Каракочанна неделю

Восточная Анатолия, Турция

01 - 07 сентября
  • 01сентября
    Сегодня
    +17°
    +32°
    Ясно и безоблачно
    ВремяПогодаТемператураВлажностьДавлениеВетер, м/сВероятность осадков
    00:00Ясно и безоблачно+21°C53 %670 мм1.5 м/с2 %
    03:00Ясно и безоблачно+19°C64 %669 мм1.2 м/с2 %
    06:00Ясно и безоблачно+17°C73 %669 мм1.0 м/с2 %
    09:00Ясно и безоблачно+23°C42 %671 мм0.8 м/с2 %
    12:00Практически безоблачно+29°C27 %672 мм2.1 м/с18 %
    15:00Ясно и безоблачно+31°C25 %671 мм3.7 м/с15 %
    18:00Ясно и безоблачно+28°C22 %671 мм2.4 м/с23 %
    21:00Ясно и безоблачно+24°C30 %671 мм0.9 м/с6 %
  • 02сентября
    Среда
    +16°
    +33°
    Ясно и безоблачно
    ВремяПогодаТемператураВлажностьДавлениеВетер, м/сВероятность осадков
    00:00Ясно и безоблачно+22°C48 %671 мм1.8 м/с2 %
    03:00Ясно и безоблачно+20°C60 %670 мм1.5 м/с2 %
    06:00Ясно и безоблачно+18°C71 %671 мм0.9 м/с2 %
    09:00Ясно и безоблачно+24°C39 %672 мм1.5 м/с2 %
    12:00Ясно и безоблачно+30°C23 %672 мм1.7 м/с2 %
    15:00Ясно и безоблачно+33°C18 %672 мм1.5 м/с2 %
    18:00Ясно и безоблачно+30°C20 %670 мм2.1 м/с2 %
    21:00Ясно и безоблачно+25°C25 %671 мм1.0 м/с2 %
  • 03сентября
    Четверг
    +17°
    +34°
    Ясно и безоблачно
    ВремяПогодаТемператураВлажностьДавлениеВетер, м/сВероятность осадков
    00:00Ясно и безоблачно+22°C36 %670 мм1.6 м/с2 %
    03:00Ясно и безоблачно+19°C53 %669 мм1.6 м/с2 %
    06:00Ясно и безоблачно+17°C59 %669 мм1.3 м/с2 %
    09:00Ясно и безоблачно+23°C32 %671 мм1.3 м/с2 %
    12:00Ясно и безоблачно+31°C17 %671 мм2.7 м/с2 %
    15:00Ясно и безоблачно+33°C13 %670 мм2.3 м/с2 %
    18:00Ясно и безоблачно+30°C14 %668 мм2.6 м/с2 %
    21:00Ясно и безоблачно+25°C20 %668 мм0.9 м/с2 %
  • 04сентября
    Пятница
    +17°
    +34°
    Ясно и безоблачно
    ВремяПогодаТемператураВлажностьДавлениеВетер, м/сВероятность осадков
    00:00Ясно и безоблачно+24°C22 %668 мм0.6 м/с2 %
    03:00Ясно и безоблачно+21°C29 %667 мм0.8 м/с2 %
    06:00Ясно и безоблачно+18°C33 %666 мм1.0 м/с2 %
    09:00Ясно и безоблачно+25°C20 %668 мм0.6 м/с2 %
    12:00Ясно и безоблачно+32°C12 %669 мм3.5 м/с2 %
    15:00Ясно и безоблачно+34°C10 %668 мм4.4 м/с2 %
    18:00Ясно и безоблачно+30°C9 %667 мм2.2 м/с2 %
    21:00Ясно и безоблачно+24°C20 %668 мм1.4 м/с2 %
  • 05сентября
    Суббота
    +16°
    +33°
    Ясно и безоблачно
    ВремяПогодаТемператураВлажностьДавлениеВетер, м/сВероятность осадков
    00:00Ясно и безоблачно+22°C31 %668 мм1.4 м/с2 %
    03:00Ясно и безоблачно+20°C51 %668 мм1.4 м/с2 %
    06:00Ясно и безоблачно+18°C64 %669 мм1.2 м/с2 %
    09:00Ясно и безоблачно+22°C42 %671 мм0.6 м/с2 %
    12:00Ясно и безоблачно+29°C19 %671 мм2.6 м/с6 %
    15:00Ясно и безоблачно+32°C14 %671 мм1.8 м/с25 %
    18:00Практически безоблачно+29°C28 %671 мм3.7 м/с28 %
    21:00Ясно и безоблачно+23°C43 %671 мм3.1 м/с6 %
  • 06сентября
    Воскресенье
    +15°
    +32°
    Ясно и безоблачно
    ВремяПогодаТемператураВлажностьДавлениеВетер, м/сВероятность осадков
    03:00Ясно и безоблачно+18°C67 %670 мм1.5 м/с11 %
    09:00Ясно и безоблачно+21°C48 %672 мм1.8 м/с7 %
    15:00Ясно и безоблачно+31°C21 %672 мм2.3 м/с18 %
    21:00Ясно и безоблачно+23°C44 %672 мм4.5 м/с10 %
  • 07сентября
    Понедельник
    +12°
    +31°
    Ясно и безоблачно
    ВремяПогодаТемператураВлажностьДавлениеВетер, м/сВероятность осадков
    03:00Ясно и безоблачно+19°C46 %671 мм1.6 м/с2 %
    09:00Ясно и безоблачно+23°C40 %673 мм2.2 м/с2 %
    15:00Ясно и безоблачно+30°C21 %672 мм3.4 м/с2 %
    21:00Ясно и безоблачно+21°C34 %671 мм2.8 м/с2 %
Мы используем cookies
Соглашаюсь